sensor_id;sensor_type;location;lat;lon;timestamp;temperature;humidity
7694;DHT22;3889;48.162;11.510;2023-04-15T00:01:49;5.70;99.90
7694;DHT22;3889;48.162;11.510;2023-04-15T00:04:18;5.80;99.90
7694;DHT22;3889;48.162;11.510;2023-04-15T00:06:49;5.80;99.90
7694;DHT22;3889;48.162;11.510;2023-04-15T00:09:18;5.80;99.90
7694;DHT22;3889;48.162;11.510;2023-04-15T00:11:46;5.70;99.90
7694;DHT22;3889;48.162;11.510;2023-04-15T00:14:14;5.70;99.90
7694;DHT22;3889;48.162;11.510;2023-04-15T00:16:42;5.80;99.90
7694;DHT22;3889;48.162;11.510;2023-04-15T00:19:10;5.80;99.90
7694;DHT22;3889;48.162;11.510;2023-04-15T00:21:40;5.80;99.90
7694;DHT22;3889;48.162;11.510;2023-04-15T00:24:07;5.80;99.90
7694;DHT22;3889;48.162;11.510;2023-04-15T00:26:35;5.80;99.90
7694;DHT22;3889;48.162;11.510;2023-04-15T00:29:03;5.80;99.90
7694;DHT22;3889;48.162;11.510;2023-04-15T00:31:31;5.80;99.90
7694;DHT22;3889;48.162;11.510;2023-04-15T00:33:59;5.80;99.90
7694;DHT22;3889;48.162;11.510;2023-04-15T00:36:27;5.80;99.90
7694;DHT22;3889;48.162;11.510;2023-04-15T00:38:57;5.90;99.90
7694;DHT22;3889;48.162;11.510;2023-04-15T00:41:25;5.80;99.90
7694;DHT22;3889;48.162;11.510;2023-04-15T00:43:53;5.90;99.90
7694;DHT22;3889;48.162;11.510;2023-04-15T00:46:21;5.90;99.90
7694;DHT22;3889;48.162;11.510;2023-04-15T00:48:50;5.80;99.90
7694;DHT22;3889;48.162;11.510;2023-04-15T00:51:18;5.70;99.90
7694;DHT22;3889;48.162;11.510;2023-04-15T00:53:46;5.80;99.90
7694;DHT22;3889;48.162;11.510;2023-04-15T00:56:15;5.70;99.90
7694;DHT22;3889;48.162;11.510;2023-04-15T00:58:43;5.80;99.90
7694;DHT22;3889;48.162;11.510;2023-04-15T01:01:11;5.80;99.90
7694;DHT22;3889;48.162;11.510;2023-04-15T01:03:39;5.80;99.90
7694;DHT22;3889;48.162;11.510;2023-04-15T01:06:07;5.70;99.90
7694;DHT22;3889;48.162;11.510;2023-04-15T01:08:35;5.70;99.90
7694;DHT22;3889;48.162;11.510;2023-04-15T01:11:02;5.70;99.90
7694;DHT22;3889;48.162;11.510;2023-04-15T01:13:33;5.70;99.90
7694;DHT22;3889;48.162;11.510;2023-04-15T01:16:01;5.70;99.90
7694;DHT22;3889;48.162;11.510;2023-04-15T01:18:29;5.70;99.90
7694;DHT22;3889;48.162;11.510;2023-04-15T01:20:59;5.70;99.90
7694;DHT22;3889;48.162;11.510;2023-04-15T01:23:28;5.70;99.90
7694;DHT22;3889;48.162;11.510;2023-04-15T01:25:58;5.80;99.90
7694;DHT22;3889;48.162;11.510;2023-04-15T01:28:26;5.80;99.90
7694;DHT22;3889;48.162;11.510;2023-04-15T01:31:07;5.80;99.90
7694;DHT22;3889;48.162;11.510;2023-04-15T01:33:36;5.80;99.90
7694;DHT22;3889;48.162;11.510;2023-04-15T01:36:06;5.80;99.90
7694;DHT22;3889;48.162;11.510;2023-04-15T01:38:35;5.80;99.90
7694;DHT22;3889;48.162;11.510;2023-04-15T01:41:05;5.80;99.90
7694;DHT22;3889;48.162;11.510;2023-04-15T01:43:34;5.70;99.90
7694;DHT22;3889;48.162;11.510;2023-04-15T01:46:02;5.70;99.90
7694;DHT22;3889;48.162;11.510;2023-04-15T01:48:30;5.70;99.90
7694;DHT22;3889;48.162;11.510;2023-04-15T01:50:59;5.70;99.90
7694;DHT22;3889;48.162;11.510;2023-04-15T01:53:27;5.80;99.90
7694;DHT22;3889;48.162;11.510;2023-04-15T01:55:54;5.80;99.90
7694;DHT22;3889;48.162;11.510;2023-04-15T01:58:24;5.80;99.90
7694;DHT22;3889;48.162;11.510;2023-04-15T02:00:52;5.80;99.90
7694;DHT22;3889;48.162;11.510;2023-04-15T02:03:20;5.80;99.90
7694;DHT22;3889;48.162;11.510;2023-04-15T02:05:48;5.80;99.90
7694;DHT22;3889;48.162;11.510;2023-04-15T02:08:17;5.80;99.90
7694;DHT22;3889;48.162;11.510;2023-04-15T02:10:44;5.80;99.90
7694;DHT22;3889;48.162;11.510;2023-04-15T02:13:13;5.80;99.90
7694;DHT22;3889;48.162;11.510;2023-04-15T02:15:47;5.80;99.90
7694;DHT22;3889;48.162;11.510;2023-04-15T02:18:15;5.90;99.90
7694;DHT22;3889;48.162;11.510;2023-04-15T02:20:43;5.80;99.90
7694;DHT22;3889;48.162;11.510;2023-04-15T02:23:12;5.90;99.90
7694;DHT22;3889;48.162;11.510;2023-04-15T02:25:40;5.90;99.90
7694;DHT22;3889;48.162;11.510;2023-04-15T02:28:19;5.90;99.90
7694;DHT22;3889;48.162;11.510;2023-04-15T02:30:48;5.90;99.90
7694;DHT22;3889;48.162;11.510;2023-04-15T02:33:18;5.80;99.90
7694;DHT22;3889;48.162;11.510;2023-04-15T02:35:46;5.80;99.90
7694;DHT22;3889;48.162;11.510;2023-04-15T02:38:14;5.90;99.90
7694;DHT22;3889;48.162;11.510;2023-04-15T02:40:43;5.80;99.90
7694;DHT22;3889;48.162;11.510;2023-04-15T02:43:11;5.70;99.90
7694;DHT22;3889;48.162;11.510;2023-04-15T02:45:39;5.80;99.90
7694;DHT22;3889;48.162;11.510;2023-04-15T02:48:10;5.80;99.90
7694;DHT22;3889;48.162;11.510;2023-04-15T02:50:38;5.80;99.90
7694;DHT22;3889;48.162;11.510;2023-04-15T02:53:06;5.80;99.90
7694;DHT22;3889;48.162;11.510;2023-04-15T02:55:34;5.80;99.90
7694;DHT22;3889;48.162;11.510;2023-04-15T02:58:02;5.80;99.90
7694;DHT22;3889;48.162;11.510;2023-04-15T03:00:30;5.80;99.90
7694;DHT22;3889;48.162;11.510;2023-04-15T03:03:00;5.80;99.90
7694;DHT22;3889;48.162;11.510;2023-04-15T03:05:30;5.80;99.90
7694;DHT22;3889;48.162;11.510;2023-04-15T03:07:58;5.70;99.90
7694;DHT22;3889;48.162;11.510;2023-04-15T03:10:26;5.70;99.90
7694;DHT22;3889;48.162;11.510;2023-04-15T03:12:54;5.80;99.90
7694;DHT22;3889;48.162;11.510;2023-04-15T03:15:22;5.70;99.90
7694;DHT22;3889;48.162;11.510;2023-04-15T03:17:50;5.80;99.90
7694;DHT22;3889;48.162;11.510;2023-04-15T03:20:18;5.70;99.90
7694;DHT22;3889;48.162;11.510;2023-04-15T03:22:47;5.80;99.90
7694;DHT22;3889;48.162;11.510;2023-04-15T03:25:15;5.70;99.90
7694;DHT22;3889;48.162;11.510;2023-04-15T03:27:43;5.70;99.90
7694;DHT22;3889;48.162;11.510;2023-04-15T03:30:12;5.70;99.90
7694;DHT22;3889;48.162;11.510;2023-04-15T03:32:40;5.70;99.90
7694;DHT22;3889;48.162;11.510;2023-04-15T03:35:08;5.70;99.90
7694;DHT22;3889;48.162;11.510;2023-04-15T03:37:36;5.70;99.90
7694;DHT22;3889;48.162;11.510;2023-04-15T03:40:07;5.70;99.90
7694;DHT22;3889;48.162;11.510;2023-04-15T03:42:35;5.70;99.90
7694;DHT22;3889;48.162;11.510;2023-04-15T03:45:04;5.70;99.90
7694;DHT22;3889;48.162;11.510;2023-04-15T03:47:33;5.70;99.90
7694;DHT22;3889;48.162;11.510;2023-04-15T03:50:01;5.70;99.90
7694;DHT22;3889;48.162;11.510;2023-04-15T03:52:28;5.70;99.90
7694;DHT22;3889;48.162;11.510;2023-04-15T03:54:56;5.70;99.90
7694;DHT22;3889;48.162;11.510;2023-04-15T03:57:26;5.70;99.90
7694;DHT22;3889;48.162;11.510;2023-04-15T03:59:53;5.60;99.90
7694;DHT22;3889;48.162;11.510;2023-04-15T04:02:21;5.60;99.90
7694;DHT22;3889;48.162;11.510;2023-04-15T04:04:52;5.60;99.90
7694;DHT22;3889;48.162;11.510;2023-04-15T04:07:22;5.60;99.90
7694;DHT22;3889;48.162;11.510;2023-04-15T04:09:50;5.60;99.90
7694;DHT22;3889;48.162;11.510;2023-04-15T04:12:18;5.60;99.90
7694;DHT22;3889;48.162;11.510;2023-04-15T04:14:48;5.60;99.90
7694;DHT22;3889;48.162;11.510;2023-04-15T04:17:15;5.60;99.90
7694;DHT22;3889;48.162;11.510;2023-04-15T04:19:43;5.60;99.90
7694;DHT22;3889;48.162;11.510;2023-04-15T04:22:11;5.60;99.90
7694;DHT22;3889;48.162;11.510;2023-04-15T04:24:39;5.60;99.90
7694;DHT22;3889;48.162;11.510;2023-04-15T04:27:08;5.60;99.90
7694;DHT22;3889;48.162;11.510;2023-04-15T04:29:36;5.60;99.90
7694;DHT22;3889;48.162;11.510;2023-04-15T04:32:05;5.60;99.90
7694;DHT22;3889;48.162;11.510;2023-04-15T04:34:33;5.70;99.90
7694;DHT22;3889;48.162;11.510;2023-04-15T04:37:01;5.70;99.90
7694;DHT22;3889;48.162;11.510;2023-04-15T04:39:29;5.70;99.90
7694;DHT22;3889;48.162;11.510;2023-04-15T04:41:58;5.60;99.90
7694;DHT22;3889;48.162;11.510;2023-04-15T04:44:26;5.60;99.90
7694;DHT22;3889;48.162;11.510;2023-04-15T04:46:54;5.60;99.90
7694;DHT22;3889;48.162;11.510;2023-04-15T04:49:23;5.60;99.90
7694;DHT22;3889;48.162;11.510;2023-04-15T04:51:51;5.60;99.90
7694;DHT22;3889;48.162;11.510;2023-04-15T04:54:19;5.60;99.90
7694;DHT22;3889;48.162;11.510;2023-04-15T04:56:47;5.60;99.90
7694;DHT22;3889;48.162;11.510;2023-04-15T04:59:15;5.60;99.90
7694;DHT22;3889;48.162;11.510;2023-04-15T05:01:45;5.60;99.90
7694;DHT22;3889;48.162;11.510;2023-04-15T05:04:13;5.70;99.90
7694;DHT22;3889;48.162;11.510;2023-04-15T05:06:42;5.70;99.90
7694;DHT22;3889;48.162;11.510;2023-04-15T05:09:10;5.70;99.90
7694;DHT22;3889;48.162;11.510;2023-04-15T05:11:38;5.70;99.90
7694;DHT22;3889;48.162;11.510;2023-04-15T05:14:06;5.80;99.90
7694;DHT22;3889;48.162;11.510;2023-04-15T05:16:33;5.80;99.90
7694;DHT22;3889;48.162;11.510;2023-04-15T05:19:01;5.80;99.90
7694;DHT22;3889;48.162;11.510;2023-04-15T05:21:29;5.90;99.90
7694;DHT22;3889;48.162;11.510;2023-04-15T05:23:59;5.90;99.90
7694;DHT22;3889;48.162;11.510;2023-04-15T05:26:26;5.90;99.90
7694;DHT22;3889;48.162;11.510;2023-04-15T05:28:54;5.90;99.90
7694;DHT22;3889;48.162;11.510;2023-04-15T05:31:22;5.90;99.90
7694;DHT22;3889;48.162;11.510;2023-04-15T05:33:50;5.90;99.90
7694;DHT22;3889;48.162;11.510;2023-04-15T05:36:18;6.00;99.90
7694;DHT22;3889;48.162;11.510;2023-04-15T05:38:46;5.90;99.90
7694;DHT22;3889;48.162;11.510;2023-04-15T05:41:16;5.90;99.90
7694;DHT22;3889;48.162;11.510;2023-04-15T05:43:45;5.90;99.90
7694;DHT22;3889;48.162;11.510;2023-04-15T05:46:13;5.90;99.90
7694;DHT22;3889;48.162;11.510;2023-04-15T05:48:41;5.90;99.90
7694;DHT22;3889;48.162;11.510;2023-04-15T05:51:09;5.90;99.90
7694;DHT22;3889;48.162;11.510;2023-04-15T05:53:37;5.90;99.90
7694;DHT22;3889;48.162;11.510;2023-04-15T05:56:06;6.00;99.90
7694;DHT22;3889;48.162;11.510;2023-04-15T05:58:35;6.10;99.90
7694;DHT22;3889;48.162;11.510;2023-04-15T06:01:03;6.10;99.90
7694;DHT22;3889;48.162;11.510;2023-04-15T06:03:31;6.20;99.90
7694;DHT22;3889;48.162;11.510;2023-04-15T06:06:00;6.20;99.90
7694;DHT22;3889;48.162;11.510;2023-04-15T06:08:28;6.20;99.90
7694;DHT22;3889;48.162;11.510;2023-04-15T06:10:57;6.20;99.90
7694;DHT22;3889;48.162;11.510;2023-04-15T06:13:25;6.20;99.90
7694;DHT22;3889;48.162;11.510;2023-04-15T06:15:54;6.30;99.90
7694;DHT22;3889;48.162;11.510;2023-04-15T06:18:22;6.20;99.90
7694;DHT22;3889;48.162;11.510;2023-04-15T06:20:50;6.20;99.90
7694;DHT22;3889;48.162;11.510;2023-04-15T06:23:18;6.30;99.90
7694;DHT22;3889;48.162;11.510;2023-04-15T06:25:46;6.30;99.90
7694;DHT22;3889;48.162;11.510;2023-04-15T06:28:14;6.40;99.90
7694;DHT22;3889;48.162;11.510;2023-04-15T06:30:42;6.50;99.90
7694;DHT22;3889;48.162;11.510;2023-04-15T06:33:11;6.50;99.90
7694;DHT22;3889;48.162;11.510;2023-04-15T06:35:39;6.50;99.90
7694;DHT22;3889;48.162;11.510;2023-04-15T06:38:07;6.70;99.90
7694;DHT22;3889;48.162;11.510;2023-04-15T06:40:34;6.80;99.90
7694;DHT22;3889;48.162;11.510;2023-04-15T06:43:02;6.80;99.90
7694;DHT22;3889;48.162;11.510;2023-04-15T06:45:30;6.90;99.90
7694;DHT22;3889;48.162;11.510;2023-04-15T06:47:58;7.00;99.90
7694;DHT22;3889;48.162;11.510;2023-04-15T06:50:28;6.90;99.90
7694;DHT22;3889;48.162;11.510;2023-04-15T06:52:55;7.00;99.90
7694;DHT22;3889;48.162;11.510;2023-04-15T06:55:23;7.00;99.90
7694;DHT22;3889;48.162;11.510;2023-04-15T06:57:51;7.10;99.90
7694;DHT22;3889;48.162;11.510;2023-04-15T07:00:19;7.10;99.90
7694;DHT22;3889;48.162;11.510;2023-04-15T07:02:47;7.20;99.90
7694;DHT22;3889;48.162;11.510;2023-04-15T07:05:16;7.20;99.90
7694;DHT22;3889;48.162;11.510;2023-04-15T07:07:45;7.40;99.90
7694;DHT22;3889;48.162;11.510;2023-04-15T07:10:13;7.50;99.90
7694;DHT22;3889;48.162;11.510;2023-04-15T07:12:41;7.60;99.90
7694;DHT22;3889;48.162;11.510;2023-04-15T07:15:10;7.70;99.90
7694;DHT22;3889;48.162;11.510;2023-04-15T07:17:39;7.80;99.90
7694;DHT22;3889;48.162;11.510;2023-04-15T07:20:08;7.90;99.90
7694;DHT22;3889;48.162;11.510;2023-04-15T07:22:35;7.90;99.90
7694;DHT22;3889;48.162;11.510;2023-04-15T07:25:06;7.90;99.90
7694;DHT22;3889;48.162;11.510;2023-04-15T07:27:34;8.10;99.90
7694;DHT22;3889;48.162;11.510;2023-04-15T07:30:02;8.20;99.90
7694;DHT22;3889;48.162;11.510;2023-04-15T07:32:30;8.40;99.90
7694;DHT22;3889;48.162;11.510;2023-04-15T07:34:58;8.40;99.90
7694;DHT22;3889;48.162;11.510;2023-04-15T07:37:27;8.50;99.90
7694;DHT22;3889;48.162;11.510;2023-04-15T07:39:55;8.60;99.90
7694;DHT22;3889;48.162;11.510;2023-04-15T07:42:24;8.70;99.90
7694;DHT22;3889;48.162;11.510;2023-04-15T07:44:53;8.70;99.90
7694;DHT22;3889;48.162;11.510;2023-04-15T07:47:21;8.80;99.90
7694;DHT22;3889;48.162;11.510;2023-04-15T07:49:48;8.80;99.90
7694;DHT22;3889;48.162;11.510;2023-04-15T07:52:17;9.00;99.90
7694;DHT22;3889;48.162;11.510;2023-04-15T07:54:45;9.00;99.90
7694;DHT22;3889;48.162;11.510;2023-04-15T07:57:13;9.20;99.90
7694;DHT22;3889;48.162;11.510;2023-04-15T07:59:42;9.30;99.90
7694;DHT22;3889;48.162;11.510;2023-04-15T08:02:10;9.50;99.90
7694;DHT22;3889;48.162;11.510;2023-04-15T08:04:38;9.50;99.90
7694;DHT22;3889;48.162;11.510;2023-04-15T08:07:06;9.70;99.90
7694;DHT22;3889;48.162;11.510;2023-04-15T08:09:34;9.90;99.90
7694;DHT22;3889;48.162;11.510;2023-04-15T08:12:02;10.00;99.90
7694;DHT22;3889;48.162;11.510;2023-04-15T08:14:30;10.10;99.90
7694;DHT22;3889;48.162;11.510;2023-04-15T08:17:00;10.10;99.90
7694;DHT22;3889;48.162;11.510;2023-04-15T08:19:28;10.10;99.90
7694;DHT22;3889;48.162;11.510;2023-04-15T08:21:56;10.30;99.90
7694;DHT22;3889;48.162;11.510;2023-04-15T08:24:25;10.30;99.90
7694;DHT22;3889;48.162;11.510;2023-04-15T08:26:52;10.50;99.90
7694;DHT22;3889;48.162;11.510;2023-04-15T08:29:20;10.50;99.90
7694;DHT22;3889;48.162;11.510;2023-04-15T08:31:48;10.20;99.90
7694;DHT22;3889;48.162;11.510;2023-04-15T08:34:17;10.10;99.90
7694;DHT22;3889;48.162;11.510;2023-04-15T08:36:45;10.10;99.90
7694;DHT22;3889;48.162;11.510;2023-04-15T08:39:13;10.00;99.90
7694;DHT22;3889;48.162;11.510;2023-04-15T08:41:45;9.90;99.90
7694;DHT22;3889;48.162;11.510;2023-04-15T08:44:14;10.00;99.90
7694;DHT22;3889;48.162;11.510;2023-04-15T08:46:42;10.00;99.90
7694;DHT22;3889;48.162;11.510;2023-04-15T08:49:11;10.00;99.90
7694;DHT22;3889;48.162;11.510;2023-04-15T08:51:42;10.10;99.90
7694;DHT22;3889;48.162;11.510;2023-04-15T08:54:11;10.00;99.90
7694;DHT22;3889;48.162;11.510;2023-04-15T08:56:39;10.00;99.90
7694;DHT22;3889;48.162;11.510;2023-04-15T08:59:08;9.80;99.90
7694;DHT22;3889;48.162;11.510;2023-04-15T09:01:37;9.80;99.90
7694;DHT22;3889;48.162;11.510;2023-04-15T09:04:06;9.80;99.90
7694;DHT22;3889;48.162;11.510;2023-04-15T09:06:34;9.70;99.90
7694;DHT22;3889;48.162;11.510;2023-04-15T09:09:03;9.70;99.90
7694;DHT22;3889;48.162;11.510;2023-04-15T09:11:31;9.70;99.90
7694;DHT22;3889;48.162;11.510;2023-04-15T09:13:59;9.60;99.90
7694;DHT22;3889;48.162;11.510;2023-04-15T09:16:27;9.90;99.90
7694;DHT22;3889;48.162;11.510;2023-04-15T09:18:55;9.90;99.90
7694;DHT22;3889;48.162;11.510;2023-04-15T09:21:23;9.90;99.90
7694;DHT22;3889;48.162;11.510;2023-04-15T09:23:56;10.00;99.90
7694;DHT22;3889;48.162;11.510;2023-04-15T09:26:33;10.00;99.90
7694;DHT22;3889;48.162;11.510;2023-04-15T09:29:04;9.70;99.90
7694;DHT22;3889;48.162;11.510;2023-04-15T09:31:33;9.80;99.90
7694;DHT22;3889;48.162;11.510;2023-04-15T09:34:02;9.90;99.90
7694;DHT22;3889;48.162;11.510;2023-04-15T09:36:37;10.10;99.90
7694;DHT22;3889;48.162;11.510;2023-04-15T09:39:18;10.40;99.90
7694;DHT22;3889;48.162;11.510;2023-04-15T09:42:03;10.50;99.90
7694;DHT22;3889;48.162;11.510;2023-04-15T09:44:32;10.70;99.90
7694;DHT22;3889;48.162;11.510;2023-04-15T09:47:00;10.60;99.90
7694;DHT22;3889;48.162;11.510;2023-04-15T09:49:28;10.60;99.90
7694;DHT22;3889;48.162;11.510;2023-04-15T09:51:59;10.20;99.90
7694;DHT22;3889;48.162;11.510;2023-04-15T09:54:33;10.20;99.90
7694;DHT22;3889;48.162;11.510;2023-04-15T09:57:07;10.10;99.90
7694;DHT22;3889;48.162;11.510;2023-04-15T09:59:35;10.00;99.90
7694;DHT22;3889;48.162;11.510;2023-04-15T10:02:04;9.80;99.90
7694;DHT22;3889;48.162;11.510;2023-04-15T10:04:35;9.80;99.90
7694;DHT22;3889;48.162;11.510;2023-04-15T10:07:04;9.80;99.90
7694;DHT22;3889;48.162;11.510;2023-04-15T10:09:33;9.80;99.90
7694;DHT22;3889;48.162;11.510;2023-04-15T10:12:02;9.90;99.90
7694;DHT22;3889;48.162;11.510;2023-04-15T10:14:34;10.00;99.90
7694;DHT22;3889;48.162;11.510;2023-04-15T10:17:04;10.00;99.90
7694;DHT22;3889;48.162;11.510;2023-04-15T10:19:33;10.10;99.90
7694;DHT22;3889;48.162;11.510;2023-04-15T10:22:03;10.20;99.90
7694;DHT22;3889;48.162;11.510;2023-04-15T10:24:32;10.20;99.90
7694;DHT22;3889;48.162;11.510;2023-04-15T10:27:02;10.20;99.90
7694;DHT22;3889;48.162;11.510;2023-04-15T10:29:31;10.20;99.90
7694;DHT22;3889;48.162;11.510;2023-04-15T10:32:00;10.10;99.90
7694;DHT22;3889;48.162;11.510;2023-04-15T10:34:29;10.20;99.90
7694;DHT22;3889;48.162;11.510;2023-04-15T10:37:01;10.20;99.90
7694;DHT22;3889;48.162;11.510;2023-04-15T10:39:41;10.30;99.90
7694;DHT22;3889;48.162;11.510;2023-04-15T10:42:11;10.40;99.90
7694;DHT22;3889;48.162;11.510;2023-04-15T10:44:42;10.60;99.90
7694;DHT22;3889;48.162;11.510;2023-04-15T10:47:11;10.60;99.90
7694;DHT22;3889;48.162;11.510;2023-04-15T10:49:44;10.50;99.90
7694;DHT22;3889;48.162;11.510;2023-04-15T10:52:13;10.20;99.90
7694;DHT22;3889;48.162;11.510;2023-04-15T10:54:42;10.30;99.90
7694;DHT22;3889;48.162;11.510;2023-04-15T10:57:15;10.40;99.90
7694;DHT22;3889;48.162;11.510;2023-04-15T11:00:02;10.40;99.90
7694;DHT22;3889;48.162;11.510;2023-04-15T11:02:44;10.30;99.90
7694;DHT22;3889;48.162;11.510;2023-04-15T11:05:14;10.10;99.90
7694;DHT22;3889;48.162;11.510;2023-04-15T11:07:51;10.00;99.90
7694;DHT22;3889;48.162;11.510;2023-04-15T11:10:50;10.00;99.90
7694;DHT22;3889;48.162;11.510;2023-04-15T11:13:25;10.00;99.90
7694;DHT22;3889;48.162;11.510;2023-04-15T11:15:57;9.90;99.90
7694;DHT22;3889;48.162;11.510;2023-04-15T11:18:31;9.90;99.90
7694;DHT22;3889;48.162;11.510;2023-04-15T11:21:02;9.90;99.90
7694;DHT22;3889;48.162;11.510;2023-04-15T11:23:32;9.70;99.90
7694;DHT22;3889;48.162;11.510;2023-04-15T11:26:01;9.70;99.90
7694;DHT22;3889;48.162;11.510;2023-04-15T11:28:31;9.60;99.90
7694;DHT22;3889;48.162;11.510;2023-04-15T11:31:06;9.60;99.90
7694;DHT22;3889;48.162;11.510;2023-04-15T11:33:36;9.30;99.90
7694;DHT22;3889;48.162;11.510;2023-04-15T11:36:04;9.30;99.90
7694;DHT22;3889;48.162;11.510;2023-04-15T11:38:33;9.40;99.90
7694;DHT22;3889;48.162;11.510;2023-04-15T11:41:01;9.50;99.90
7694;DHT22;3889;48.162;11.510;2023-04-15T11:43:31;9.40;99.90
7694;DHT22;3889;48.162;11.510;2023-04-15T11:46:02;9.30;99.90
7694;DHT22;3889;48.162;11.510;2023-04-15T11:48:33;9.30;99.90
7694;DHT22;3889;48.162;11.510;2023-04-15T11:51:03;9.30;99.90
7694;DHT22;3889;48.162;11.510;2023-04-15T11:53:41;9.30;99.90
7694;DHT22;3889;48.162;11.510;2023-04-15T11:56:10;9.30;99.90
7694;DHT22;3889;48.162;11.510;2023-04-15T11:58:38;9.30;99.90
7694;DHT22;3889;48.162;11.510;2023-04-15T12:01:06;9.40;99.90
7694;DHT22;3889;48.162;11.510;2023-04-15T12:03:39;9.40;99.90
7694;DHT22;3889;48.162;11.510;2023-04-15T12:06:13;9.60;99.90
7694;DHT22;3889;48.162;11.510;2023-04-15T12:08:48;9.70;99.90
7694;DHT22;3889;48.162;11.510;2023-04-15T12:11:16;9.70;99.90
7694;DHT22;3889;48.162;11.510;2023-04-15T12:13:45;9.80;99.90
7694;DHT22;3889;48.162;11.510;2023-04-15T12:16:16;9.70;99.90
7694;DHT22;3889;48.162;11.510;2023-04-15T12:18:46;9.90;99.90
7694;DHT22;3889;48.162;11.510;2023-04-15T12:21:14;10.00;99.90
7694;DHT22;3889;48.162;11.510;2023-04-15T12:23:47;10.20;99.90
7694;DHT22;3889;48.162;11.510;2023-04-15T12:26:15;10.30;99.90
7694;DHT22;3889;48.162;11.510;2023-04-15T12:28:43;10.30;99.90
7694;DHT22;3889;48.162;11.510;2023-04-15T12:31:13;10.50;99.90
7694;DHT22;3889;48.162;11.510;2023-04-15T12:33:41;10.60;99.90
7694;DHT22;3889;48.162;11.510;2023-04-15T12:36:10;10.60;99.90
7694;DHT22;3889;48.162;11.510;2023-04-15T12:38:38;10.50;99.90
7694;DHT22;3889;48.162;11.510;2023-04-15T12:41:06;10.40;99.90
7694;DHT22;3889;48.162;11.510;2023-04-15T12:43:34;10.40;99.90
7694;DHT22;3889;48.162;11.510;2023-04-15T12:46:02;10.20;99.90
7694;DHT22;3889;48.162;11.510;2023-04-15T12:48:31;10.20;99.90
7694;DHT22;3889;48.162;11.510;2023-04-15T12:50:59;10.00;99.90
7694;DHT22;3889;48.162;11.510;2023-04-15T12:53:30;9.90;99.90
7694;DHT22;3889;48.162;11.510;2023-04-15T12:55:58;9.80;99.90
7694;DHT22;3889;48.162;11.510;2023-04-15T12:58:26;9.80;99.90
7694;DHT22;3889;48.162;11.510;2023-04-15T13:00:54;9.70;99.90
7694;DHT22;3889;48.162;11.510;2023-04-15T13:03:23;9.60;99.90
7694;DHT22;3889;48.162;11.510;2023-04-15T13:05:51;9.60;99.90
7694;DHT22;3889;48.162;11.510;2023-04-15T13:08:19;9.60;99.90
7694;DHT22;3889;48.162;11.510;2023-04-15T13:10:48;9.50;99.90
7694;DHT22;3889;48.162;11.510;2023-04-15T13:13:17;9.60;99.90
7694;DHT22;3889;48.162;11.510;2023-04-15T13:15:44;9.60;99.90
7694;DHT22;3889;48.162;11.510;2023-04-15T13:18:12;9.50;99.90
7694;DHT22;3889;48.162;11.510;2023-04-15T13:20:41;9.40;99.90
7694;DHT22;3889;48.162;11.510;2023-04-15T13:23:08;9.50;99.90
7694;DHT22;3889;48.162;11.510;2023-04-15T13:25:37;9.60;99.90
7694;DHT22;3889;48.162;11.510;2023-04-15T13:28:06;9.60;99.90
7694;DHT22;3889;48.162;11.510;2023-04-15T13:30:36;9.50;99.90
7694;DHT22;3889;48.162;11.510;2023-04-15T13:33:05;9.50;99.90
7694;DHT22;3889;48.162;11.510;2023-04-15T13:35:33;9.60;99.90
7694;DHT22;3889;48.162;11.510;2023-04-15T13:38:01;9.50;99.90
7694;DHT22;3889;48.162;11.510;2023-04-15T13:40:28;9.30;99.90
7694;DHT22;3889;48.162;11.510;2023-04-15T13:42:56;9.20;99.90
7694;DHT22;3889;48.162;11.510;2023-04-15T13:45:26;9.20;99.90
7694;DHT22;3889;48.162;11.510;2023-04-15T13:47:55;9.10;99.90
7694;DHT22;3889;48.162;11.510;2023-04-15T13:50:23;9.10;99.90
7694;DHT22;3889;48.162;11.510;2023-04-15T13:52:51;9.20;99.90
7694;DHT22;3889;48.162;11.510;2023-04-15T13:55:18;9.20;99.90
7694;DHT22;3889;48.162;11.510;2023-04-15T13:57:50;9.10;99.90
7694;DHT22;3889;48.162;11.510;2023-04-15T14:00:18;9.00;99.90
7694;DHT22;3889;48.162;11.510;2023-04-15T14:02:47;9.00;99.90
7694;DHT22;3889;48.162;11.510;2023-04-15T14:05:15;8.90;99.90
7694;DHT22;3889;48.162;11.510;2023-04-15T14:07:43;8.90;99.90
7694;DHT22;3889;48.162;11.510;2023-04-15T14:10:11;9.00;99.90
7694;DHT22;3889;48.162;11.510;2023-04-15T14:12:40;9.10;99.90
7694;DHT22;3889;48.162;11.510;2023-04-15T14:15:08;9.10;99.90
7694;DHT22;3889;48.162;11.510;2023-04-15T14:17:36;9.20;99.90
7694;DHT22;3889;48.162;11.510;2023-04-15T14:20:08;9.20;99.90
7694;DHT22;3889;48.162;11.510;2023-04-15T14:22:36;9.10;99.90
7694;DHT22;3889;48.162;11.510;2023-04-15T14:25:05;9.30;99.90
7694;DHT22;3889;48.162;11.510;2023-04-15T14:27:33;9.40;99.90
7694;DHT22;3889;48.162;11.510;2023-04-15T14:30:01;9.60;99.90
7694;DHT22;3889;48.162;11.510;2023-04-15T14:32:29;9.60;99.90
7694;DHT22;3889;48.162;11.510;2023-04-15T14:34:56;9.50;99.90
7694;DHT22;3889;48.162;11.510;2023-04-15T14:37:26;9.50;99.90
7694;DHT22;3889;48.162;11.510;2023-04-15T14:39:54;9.50;99.90
7694;DHT22;3889;48.162;11.510;2023-04-15T14:42:22;9.40;99.90
7694;DHT22;3889;48.162;11.510;2023-04-15T14:44:50;9.40;99.90
7694;DHT22;3889;48.162;11.510;2023-04-15T14:47:17;9.30;99.90
7694;DHT22;3889;48.162;11.510;2023-04-15T14:49:45;9.20;99.90
7694;DHT22;3889;48.162;11.510;2023-04-15T14:52:13;9.10;99.90
7694;DHT22;3889;48.162;11.510;2023-04-15T14:54:42;9.10;99.90
7694;DHT22;3889;48.162;11.510;2023-04-15T14:57:10;9.00;99.90
7694;DHT22;3889;48.162;11.510;2023-04-15T14:59:38;9.10;99.90
7694;DHT22;3889;48.162;11.510;2023-04-15T15:02:07;9.10;99.90
7694;DHT22;3889;48.162;11.510;2023-04-15T15:04:35;9.10;99.90
7694;DHT22;3889;48.162;11.510;2023-04-15T15:07:03;9.10;99.90
7694;DHT22;3889;48.162;11.510;2023-04-15T15:09:31;8.90;99.90
7694;DHT22;3889;48.162;11.510;2023-04-15T15:12:02;8.70;99.90
7694;DHT22;3889;48.162;11.510;2023-04-15T15:14:30;8.50;99.90
7694;DHT22;3889;48.162;11.510;2023-04-15T15:16:58;8.50;99.90
7694;DHT22;3889;48.162;11.510;2023-04-15T15:19:26;8.20;99.90
7694;DHT22;3889;48.162;11.510;2023-04-15T15:21:54;7.90;99.90
7694;DHT22;3889;48.162;11.510;2023-04-15T15:24:22;7.80;99.90
7694;DHT22;3889;48.162;11.510;2023-04-15T15:26:49;7.50;99.90
7694;DHT22;3889;48.162;11.510;2023-04-15T15:29:19;7.70;99.90
7694;DHT22;3889;48.162;11.510;2023-04-15T15:31:47;7.50;99.90
7694;DHT22;3889;48.162;11.510;2023-04-15T15:34:15;7.50;99.90
7694;DHT22;3889;48.162;11.510;2023-04-15T15:36:43;7.50;99.90
7694;DHT22;3889;48.162;11.510;2023-04-15T15:39:11;7.40;99.90
7694;DHT22;3889;48.162;11.510;2023-04-15T15:41:39;7.30;99.90
7694;DHT22;3889;48.162;11.510;2023-04-15T15:44:07;7.40;99.90
7694;DHT22;3889;48.162;11.510;2023-04-15T15:46:36;7.50;99.90
7694;DHT22;3889;48.162;11.510;2023-04-15T15:49:04;7.50;99.90
7694;DHT22;3889;48.162;11.510;2023-04-15T15:51:32;7.50;99.90
7694;DHT22;3889;48.162;11.510;2023-04-15T15:54:00;7.50;99.90
7694;DHT22;3889;48.162;11.510;2023-04-15T15:56:28;7.50;99.90
7694;DHT22;3889;48.162;11.510;2023-04-15T15:58:55;7.50;99.90
7694;DHT22;3889;48.162;11.510;2023-04-15T16:01:23;7.60;99.90
7694;DHT22;3889;48.162;11.510;2023-04-15T16:03:52;7.50;99.90
7694;DHT22;3889;48.162;11.510;2023-04-15T16:06:21;7.40;99.90
7694;DHT22;3889;48.162;11.510;2023-04-15T16:08:48;7.50;99.90
7694;DHT22;3889;48.162;11.510;2023-04-15T16:11:16;7.50;99.90